createdAt,value
2023-05-06T00:00:20.053Z,11.99
2023-05-06T00:02:47.260Z,12.00
2023-05-06T00:05:14.429Z,11.94
2023-05-06T00:07:41.820Z,11.93
2023-05-06T00:10:09.811Z,11.94
2023-05-06T00:12:36.662Z,11.93
2023-05-06T00:15:03.727Z,11.94
2023-05-06T00:17:30.587Z,11.94
2023-05-06T00:19:59.819Z,11.91
2023-05-06T00:22:26.445Z,11.91
2023-05-06T00:24:53.035Z,11.88
2023-05-06T00:27:19.688Z,11.84
2023-05-06T00:29:46.477Z,11.82
2023-05-06T00:32:13.163Z,11.78
2023-05-06T00:34:39.950Z,11.74
2023-05-06T00:37:07.571Z,11.74
2023-05-06T00:39:34.648Z,11.70
2023-05-06T00:42:02.374Z,11.68
2023-05-06T00:44:29.935Z,11.64
2023-05-06T00:46:57.342Z,11.61
2023-05-06T00:49:24.278Z,11.57
2023-05-06T00:51:52.607Z,11.52
2023-05-06T00:54:19.479Z,11.48
2023-05-06T00:56:46.265Z,11.40
2023-05-06T00:59:12.898Z,11.35
2023-05-06T01:01:40.885Z,11.33
2023-05-06T01:04:08.730Z,11.28
2023-05-06T01:06:38.386Z,11.24
2023-05-06T01:09:19.901Z,11.22
2023-05-06T01:11:55.041Z,11.18
2023-05-06T01:14:33.342Z,11.14
2023-05-06T01:17:04.583Z,11.13
2023-05-06T01:19:41.948Z,11.12
2023-05-06T01:22:11.114Z,11.09
2023-05-06T01:24:39.601Z,11.06
2023-05-06T01:27:07.300Z,11.03
2023-05-06T01:29:36.920Z,11.01
2023-05-06T01:32:34.170Z,10.98
2023-05-06T01:35:40.770Z,10.91
2023-05-06T01:38:22.942Z,10.88
2023-05-06T01:40:55.033Z,10.85
2023-05-06T01:43:32.737Z,10.79
2023-05-06T01:46:01.390Z,10.80
2023-05-06T01:48:34.069Z,10.74
2023-05-06T01:51:03.137Z,10.68
2023-05-06T01:53:29.805Z,10.65
2023-05-06T01:55:56.514Z,10.64
2023-05-06T01:58:23.366Z,10.59
2023-05-06T02:00:50.033Z,10.59
2023-05-06T02:03:16.771Z,10.59
2023-05-06T02:05:43.409Z,10.58
2023-05-06T02:08:10.225Z,10.56
2023-05-06T02:10:36.850Z,10.53
2023-05-06T02:13:03.553Z,10.51
2023-05-06T02:15:30.409Z,10.50
2023-05-06T02:18:02.892Z,10.47
2023-05-06T02:20:29.616Z,10.45
2023-05-06T02:22:56.453Z,10.42
2023-05-06T02:25:23.301Z,10.41
2023-05-06T02:27:49.990Z,10.39
2023-05-06T02:30:17.638Z,10.42
2023-05-06T02:32:44.301Z,10.44
2023-05-06T02:35:11.222Z,10.49
2023-05-06T02:37:38.762Z,10.55
2023-05-06T02:40:06.858Z,10.57
2023-05-06T02:42:35.068Z,10.59
2023-05-06T02:45:01.865Z,10.63
2023-05-06T02:47:28.514Z,10.66
2023-05-06T02:49:55.482Z,10.70
2023-05-06T02:52:22.178Z,10.69
2023-05-06T02:54:48.786Z,10.64
2023-05-06T02:57:15.524Z,10.60
2023-05-06T02:59:42.174Z,10.57
2023-05-06T03:02:08.861Z,10.56
2023-05-06T03:04:35.602Z,10.52
2023-05-06T03:07:02.261Z,10.49
2023-05-06T03:09:28.954Z,10.47
2023-05-06T03:11:57.252Z,10.44
2023-05-06T03:14:23.994Z,10.38
2023-05-06T03:16:50.629Z,10.34
2023-05-06T03:19:17.299Z,10.27
2023-05-06T03:21:44.136Z,10.22
2023-05-06T03:24:11.554Z,10.18
2023-05-06T03:26:38.647Z,10.13
2023-05-06T03:29:05.260Z,10.10
2023-05-06T03:31:32.161Z,10.10
2023-05-06T03:33:58.906Z,10.06
2023-05-06T03:36:25.523Z,10.05
2023-05-06T03:38:52.223Z,10.01
2023-05-06T03:41:18.924Z,9.99
2023-05-06T03:43:45.696Z,9.96
2023-05-06T03:46:13.450Z,9.95
2023-05-06T03:48:40.086Z,9.93
2023-05-06T03:51:07.729Z,9.90
2023-05-06T03:53:34.431Z,9.84
2023-05-06T03:56:01.808Z,9.83
2023-05-06T03:58:28.474Z,9.82
2023-05-06T04:00:55.152Z,9.83
2023-05-06T04:03:21.864Z,9.86
2023-05-06T04:05:51.366Z,9.86
2023-05-06T04:08:18.029Z,9.90
2023-05-06T04:10:46.102Z,9.88
2023-05-06T04:13:12.933Z,9.88
2023-05-06T04:15:41.581Z,9.90
2023-05-06T04:18:08.384Z,9.95
2023-05-06T04:20:36.395Z,10.00
2023-05-06T04:23:03.213Z,10.03
2023-05-06T04:25:30.051Z,10.08
2023-05-06T04:27:56.748Z,10.13
2023-05-06T04:30:25.177Z,10.18
2023-05-06T04:32:52.356Z,10.23
2023-05-06T04:35:19.150Z,10.28
2023-05-06T04:37:45.786Z,10.34
2023-05-06T04:40:13.819Z,10.38
2023-05-06T04:42:40.527Z,10.43
2023-05-06T04:45:07.961Z,10.50
2023-05-06T04:47:36.539Z,10.57
2023-05-06T04:50:04.497Z,10.67
2023-05-06T04:52:31.211Z,10.73
2023-05-06T04:54:57.791Z,10.79
2023-05-06T04:57:24.447Z,10.83
2023-05-06T04:59:51.074Z,10.80
2023-05-06T05:02:17.690Z,10.79
2023-05-06T05:04:44.888Z,10.82
2023-05-06T05:07:11.513Z,10.88
2023-05-06T05:09:38.693Z,10.95
2023-05-06T05:12:05.591Z,11.04
2023-05-06T05:14:32.941Z,11.14
2023-05-06T05:16:59.666Z,11.26
2023-05-06T05:19:26.352Z,11.41
2023-05-06T05:21:52.950Z,11.56
2023-05-06T05:24:21.795Z,11.72
2023-05-06T05:26:48.451Z,11.88
2023-05-06T05:29:15.261Z,12.04
2023-05-06T05:31:42.034Z,12.38
2023-05-06T05:34:08.780Z,12.71
2023-05-06T05:36:35.376Z,12.99
2023-05-06T05:39:02.422Z,13.36
2023-05-06T05:41:29.644Z,14.01
2023-05-06T05:43:56.290Z,14.72
2023-05-06T05:46:22.926Z,15.43
2023-05-06T05:48:49.548Z,15.94
2023-05-06T05:51:16.140Z,16.43
2023-05-06T05:53:42.850Z,16.88
2023-05-06T05:56:09.689Z,17.27
2023-05-06T05:58:36.369Z,17.66
2023-05-06T06:01:04.205Z,17.98
2023-05-06T06:03:31.039Z,18.39
2023-05-06T06:05:57.939Z,18.79
2023-05-06T06:08:24.655Z,19.14
2023-05-06T06:10:52.214Z,19.47
2023-05-06T06:13:19.034Z,19.65
2023-05-06T06:15:46.855Z,19.91
2023-05-06T06:18:13.530Z,20.22
2023-05-06T06:20:58.756Z,20.55
2023-05-06T06:23:25.488Z,20.76
2023-05-06T06:25:52.228Z,21.03
2023-05-06T06:28:18.842Z,21.21
2023-05-06T06:30:45.554Z,21.32
2023-05-06T06:33:12.985Z,21.46
2023-05-06T06:35:40.370Z,21.66
2023-05-06T06:38:06.980Z,21.89
2023-05-06T06:40:35.594Z,22.02
2023-05-06T06:43:02.366Z,22.20
2023-05-06T06:45:29.825Z,22.41
2023-05-06T06:47:56.706Z,22.35
2023-05-06T06:50:23.693Z,22.40
2023-05-06T06:52:50.333Z,22.49
2023-05-06T06:55:16.964Z,22.56
2023-05-06T06:57:43.802Z,22.56
2023-05-06T07:00:10.977Z,22.67
2023-05-06T07:02:37.784Z,22.55
2023-05-06T07:05:04.716Z,22.48
2023-05-06T07:07:31.357Z,22.38
2023-05-06T07:09:58.012Z,21.99
2023-05-06T07:12:26.809Z,21.76
2023-05-06T07:14:55.054Z,21.68
2023-05-06T07:17:21.679Z,21.33
2023-05-06T07:19:48.280Z,20.92
2023-05-06T07:22:14.893Z,20.63
2023-05-06T07:24:42.453Z,20.44
2023-05-06T07:27:09.096Z,20.27
2023-05-06T07:29:36.841Z,20.13
2023-05-06T07:32:03.788Z,20.06
2023-05-06T07:34:32.994Z,20.06
2023-05-06T07:36:59.785Z,20.05
2023-05-06T07:39:26.419Z,19.99
2023-05-06T07:41:53.042Z,19.96
2023-05-06T07:44:19.667Z,19.94
2023-05-06T07:46:46.872Z,20.01
2023-05-06T07:49:13.571Z,20.22
2023-05-06T07:51:42.890Z,20.44
2023-05-06T07:54:09.532Z,20.69
2023-05-06T07:56:38.901Z,20.99
2023-05-06T07:59:06.190Z,21.10
2023-05-06T08:01:34.950Z,21.11
2023-05-06T08:04:01.766Z,21.16
2023-05-06T08:06:29.233Z,21.16
2023-05-06T08:08:56.012Z,21.12
2023-05-06T08:11:22.605Z,20.98
2023-05-06T08:13:50.261Z,20.93
2023-05-06T08:16:17.213Z,20.93
2023-05-06T08:18:43.843Z,20.99
2023-05-06T08:21:11.137Z,21.09
2023-05-06T08:23:37.934Z,21.22
2023-05-06T08:26:04.639Z,21.27
2023-05-06T08:28:33.696Z,21.34
2023-05-06T08:31:00.355Z,21.41
2023-05-06T08:33:28.812Z,21.35
2023-05-06T08:35:57.669Z,21.33
2023-05-06T08:38:26.021Z,21.36
2023-05-06T08:40:54.697Z,21.26
2023-05-06T08:43:26.268Z,21.24
2023-05-06T08:45:53.235Z,21.25
2023-05-06T08:48:20.046Z,21.22
2023-05-06T08:50:49.290Z,21.32
2023-05-06T08:53:16.974Z,21.39
2023-05-06T08:55:45.669Z,21.44
2023-05-06T08:58:15.809Z,21.45
2023-05-06T09:00:43.609Z,21.45
2023-05-06T09:03:10.339Z,21.49
2023-05-06T09:05:36.979Z,21.57
2023-05-06T09:08:03.638Z,21.65
2023-05-06T09:10:42.753Z,21.58
2023-05-06T09:13:14.114Z,21.70
2023-05-06T09:15:47.240Z,21.76
2023-05-06T09:18:15.135Z,21.88
2023-05-06T09:20:47.586Z,21.90
2023-05-06T09:23:16.540Z,21.97
2023-05-06T09:25:46.184Z,22.03
2023-05-06T09:28:13.890Z,22.06
2023-05-06T09:30:41.771Z,22.05
2023-05-06T09:33:09.670Z,21.98
2023-05-06T09:35:43.369Z,22.05
2023-05-06T09:38:11.066Z,22.15
2023-05-06T09:40:39.804Z,22.18
2023-05-06T09:43:06.654Z,22.18
2023-05-06T09:45:33.745Z,22.22
2023-05-06T09:48:01.173Z,22.38
2023-05-06T09:50:28.821Z,22.55
2023-05-06T09:52:56.222Z,22.65
2023-05-06T09:55:26.673Z,22.78
2023-05-06T09:57:56.089Z,22.78
2023-05-06T10:00:30.872Z,22.85
2023-05-06T10:02:59.172Z,23.02
2023-05-06T10:05:29.014Z,23.20
2023-05-06T10:07:57.343Z,23.37
2023-05-06T10:10:25.612Z,23.47
2023-05-06T10:12:52.902Z,23.41
2023-05-06T10:15:21.244Z,23.54
2023-05-06T10:17:50.510Z,23.64
2023-05-06T10:20:17.782Z,23.63
2023-05-06T10:22:47.218Z,23.64
2023-05-06T10:25:22.100Z,23.55
2023-05-06T10:27:48.911Z,23.56
2023-05-06T10:30:19.365Z,23.59
2023-05-06T10:32:46.514Z,23.57
2023-05-06T10:35:27.604Z,23.41
2023-05-06T10:37:55.165Z,23.31
2023-05-06T10:40:23.437Z,23.19
2023-05-06T10:42:51.573Z,23.18
2023-05-06T10:45:18.209Z,23.18
2023-05-06T10:47:57.409Z,23.22
2023-05-06T10:50:26.348Z,23.26
2023-05-06T10:52:59.070Z,23.31
2023-05-06T10:55:31.136Z,23.37
2023-05-06T10:58:02.419Z,23.37
2023-05-06T11:00:33.267Z,23.26
2023-05-06T11:03:07.656Z,23.15
2023-05-06T11:05:49.003Z,23.09
2023-05-06T11:08:22.010Z,23.09
2023-05-06T11:10:49.391Z,23.07
2023-05-06T11:13:34.403Z,23.09
2023-05-06T11:16:02.615Z,23.07
2023-05-06T11:18:31.946Z,23.03
2023-05-06T11:21:01.553Z,23.02
2023-05-06T11:23:43.445Z,22.88
2023-05-06T11:26:11.165Z,22.80
2023-05-06T11:28:38.694Z,22.70
2023-05-06T11:31:09.096Z,22.66
2023-05-06T11:33:37.206Z,22.59
2023-05-06T11:36:05.304Z,22.50
2023-05-06T11:38:52.693Z,22.55
2023-05-06T11:41:20.053Z,22.59
2023-05-06T11:43:52.862Z,22.78
2023-05-06T11:46:20.811Z,23.05
2023-05-06T11:48:47.858Z,23.31
2023-05-06T11:51:14.615Z,23.44
2023-05-06T11:53:41.285Z,23.60
2023-05-06T11:56:08.420Z,23.74
2023-05-06T11:58:35.068Z,23.86
2023-05-06T12:01:04.506Z,23.90
2023-05-06T12:03:33.201Z,23.93
2023-05-06T12:06:00.199Z,23.97
2023-05-06T12:08:34.837Z,24.03
2023-05-06T12:11:03.590Z,24.09
2023-05-06T12:13:30.692Z,24.11
2023-05-06T12:16:01.660Z,24.11
2023-05-06T12:18:28.738Z,24.00
2023-05-06T12:21:01.106Z,23.82
2023-05-06T12:23:27.671Z,23.74
2023-05-06T12:26:08.393Z,23.80
2023-05-06T12:28:38.585Z,23.93
2023-05-06T12:31:22.839Z,24.12
2023-05-06T12:33:50.642Z,24.24
2023-05-06T12:36:18.905Z,24.21
2023-05-06T12:38:53.283Z,24.16
2023-05-06T12:41:38.410Z,24.07
2023-05-06T12:44:37.985Z,24.01
2023-05-06T12:47:07.509Z,23.92
2023-05-06T12:50:04.574Z,23.80
2023-05-06T12:52:31.163Z,23.75
2023-05-06T12:55:00.772Z,23.76
2023-05-06T12:57:29.413Z,23.85
2023-05-06T12:59:56.497Z,23.98
2023-05-06T13:02:23.254Z,24.08
2023-05-06T13:04:49.927Z,24.19
2023-05-06T13:07:17.476Z,24.25
2023-05-06T13:09:44.693Z,24.34
2023-05-06T13:12:11.446Z,24.44
2023-05-06T13:14:40.075Z,24.51
2023-05-06T13:17:26.429Z,24.56
2023-05-06T13:19:53.829Z,24.58
2023-05-06T13:22:21.959Z,24.65
2023-05-06T13:24:48.650Z,24.62
2023-05-06T13:27:15.379Z,24.64
2023-05-06T13:29:42.095Z,24.77
2023-05-06T13:32:09.220Z,24.78
2023-05-06T13:34:36.274Z,24.79
2023-05-06T13:37:02.851Z,24.87
2023-05-06T13:39:29.523Z,24.97
2023-05-06T13:41:56.129Z,25.01
2023-05-06T13:44:27.010Z,25.04
2023-05-06T13:46:53.645Z,24.97
2023-05-06T13:49:20.286Z,24.85
2023-05-06T13:51:46.904Z,24.75
2023-05-06T13:54:13.483Z,24.61
2023-05-06T13:56:40.123Z,24.56
2023-05-06T13:59:08.414Z,24.54
2023-05-06T14:01:36.122Z,24.43
2023-05-06T14:04:03.671Z,23.71
2023-05-06T14:06:30.506Z,23.29
2023-05-06T14:08:57.618Z,22.67
2023-05-06T14:11:24.378Z,22.10
2023-05-06T14:13:56.321Z,21.78
2023-05-06T14:16:23.128Z,21.64
2023-05-06T14:18:49.876Z,21.57
2023-05-06T14:21:16.522Z,21.46
2023-05-06T14:23:43.217Z,21.05
2023-05-06T14:26:09.818Z,20.78
2023-05-06T14:28:36.483Z,20.82
2023-05-06T14:31:03.188Z,20.93
2023-05-06T14:33:30.817Z,20.91
2023-05-06T14:35:58.409Z,21.02
2023-05-06T14:38:25.199Z,21.25
2023-05-06T14:40:51.796Z,21.38
2023-05-06T14:43:22.032Z,21.39
2023-05-06T14:45:48.720Z,21.25
2023-05-06T14:48:15.706Z,21.21
2023-05-06T14:50:43.485Z,21.07
2023-05-06T14:53:10.194Z,21.06
2023-05-06T14:55:37.553Z,21.19
2023-05-06T14:58:04.223Z,21.40
2023-05-06T15:00:30.940Z,21.58
2023-05-06T15:02:57.727Z,21.60
2023-05-06T15:05:27.520Z,21.56
2023-05-06T15:07:54.209Z,21.31
2023-05-06T15:10:20.893Z,21.20
2023-05-06T15:12:47.636Z,21.17
2023-05-06T15:15:14.391Z,21.19
2023-05-06T15:17:42.110Z,21.17
2023-05-06T15:20:09.175Z,21.07
2023-05-06T15:22:39.467Z,21.08
2023-05-06T15:25:08.304Z,21.09
2023-05-06T15:27:37.389Z,21.02
2023-05-06T15:30:04.618Z,20.94
2023-05-06T15:32:31.576Z,20.94
2023-05-06T15:34:58.223Z,20.88
2023-05-06T15:37:24.867Z,20.85
2023-05-06T15:39:51.542Z,20.88
2023-05-06T15:42:19.043Z,20.86
2023-05-06T15:44:48.350Z,20.84
2023-05-06T15:47:15.064Z,20.88
2023-05-06T15:52:12.369Z,20.91
2023-05-06T15:54:41.109Z,20.90
2023-05-06T15:57:08.080Z,20.90
2023-05-06T15:59:36.838Z,20.87
2023-05-06T16:04:33.571Z,20.81
2023-05-06T16:07:00.300Z,20.75
2023-05-06T16:09:26.961Z,20.71
2023-05-06T16:11:54.814Z,20.73
2023-05-06T16:14:21.414Z,20.71
2023-05-06T16:16:48.073Z,20.73
2023-05-06T16:19:16.711Z,20.77
2023-05-06T16:21:44.564Z,20.79
2023-05-06T16:24:11.140Z,20.83
2023-05-06T16:26:37.797Z,20.85
2023-05-06T16:29:04.413Z,20.87
2023-05-06T16:31:32.983Z,20.86
2023-05-06T16:33:59.745Z,20.91
2023-05-06T16:36:27.644Z,20.90
2023-05-06T16:38:54.819Z,20.87
2023-05-06T16:41:21.632Z,20.83
2023-05-06T16:43:48.377Z,20.79
2023-05-06T16:46:16.585Z,20.78
2023-05-06T16:48:43.372Z,20.74
2023-05-06T16:51:10.536Z,20.79
2023-05-06T16:53:37.742Z,20.86
2023-05-06T16:56:05.461Z,20.91
2023-05-06T16:58:32.784Z,20.94
2023-05-06T17:00:59.464Z,20.87
2023-05-06T17:03:26.337Z,20.78
2023-05-06T17:05:54.369Z,20.68
2023-05-06T17:08:24.191Z,20.63
2023-05-06T17:10:51.226Z,20.61
2023-05-06T17:13:17.968Z,20.62
2023-05-06T17:15:44.776Z,20.61
2023-05-06T17:18:11.517Z,20.56
2023-05-06T17:20:51.710Z,20.49
2023-05-06T17:23:23.336Z,20.44
2023-05-06T17:25:49.968Z,20.43
2023-05-06T17:28:18.002Z,20.37
2023-05-06T17:30:45.230Z,20.31
2023-05-06T17:33:11.841Z,20.23
2023-05-06T17:35:38.549Z,20.19
2023-05-06T17:38:05.315Z,20.17
2023-05-06T17:40:32.067Z,20.16
2023-05-06T17:42:58.658Z,20.13
2023-05-06T17:45:26.829Z,20.13
2023-05-06T17:47:53.683Z,20.09
2023-05-06T17:50:20.375Z,20.07
2023-05-06T17:52:50.744Z,20.04
2023-05-06T17:55:17.789Z,20.01
2023-05-06T17:57:44.615Z,19.96
2023-05-06T18:00:13.498Z,19.94
2023-05-06T18:02:40.229Z,19.94
2023-05-06T18:05:07.152Z,19.85
2023-05-06T18:07:35.910Z,19.78
2023-05-06T18:10:02.489Z,19.76
2023-05-06T18:12:29.251Z,19.70
2023-05-06T18:14:56.834Z,19.70
2023-05-06T18:17:23.682Z,19.63
2023-05-06T18:19:50.759Z,19.58
2023-05-06T18:22:17.471Z,19.50
2023-05-06T18:24:44.152Z,19.49
2023-05-06T18:27:11.590Z,19.47
2023-05-06T18:29:38.192Z,19.45
2023-05-06T18:32:06.708Z,19.43
2023-05-06T18:34:34.276Z,19.37
2023-05-06T18:37:01.017Z,19.32
2023-05-06T18:39:27.622Z,19.29
2023-05-06T18:41:54.244Z,19.21
2023-05-06T18:44:23.692Z,19.17
2023-05-06T18:46:50.348Z,19.10
2023-05-06T18:49:21.237Z,19.07
2023-05-06T18:51:47.962Z,19.05
2023-05-06T18:54:16.168Z,19.06
2023-05-06T18:57:02.410Z,19.05
2023-05-06T18:59:29.124Z,19.02
2023-05-06T19:01:57.029Z,18.97
2023-05-06T19:04:23.650Z,18.92
2023-05-06T19:06:51.710Z,18.90
2023-05-06T19:09:18.334Z,18.89
2023-05-06T19:11:44.920Z,18.86
2023-05-06T19:14:11.605Z,18.86
2023-05-06T19:16:40.692Z,18.81
2023-05-06T19:19:07.661Z,18.79
2023-05-06T19:21:35.091Z,18.78
2023-05-06T19:24:05.008Z,18.78
2023-05-06T19:26:31.685Z,18.77
2023-05-06T19:28:58.500Z,18.80
2023-05-06T19:31:25.189Z,18.78
2023-05-06T19:33:51.907Z,18.70
2023-05-06T19:36:19.614Z,18.57
2023-05-06T19:38:46.420Z,18.42
2023-05-06T19:41:13.340Z,18.34
2023-05-06T19:43:44.191Z,18.30
2023-05-06T19:46:11.666Z,18.24
2023-05-06T19:48:40.555Z,18.21
2023-05-06T19:51:08.205Z,18.12
2023-05-06T19:53:36.190Z,18.00
2023-05-06T19:56:13.540Z,17.90
2023-05-06T19:58:40.650Z,17.82
2023-05-06T20:01:09.027Z,17.74
2023-05-06T20:03:36.065Z,17.66
2023-05-06T20:06:04.008Z,17.66
2023-05-06T20:08:33.309Z,17.66
2023-05-06T20:11:00.145Z,17.65
2023-05-06T20:13:26.919Z,17.66
2023-05-06T20:15:54.935Z,17.64
2023-05-06T20:18:21.631Z,17.61
2023-05-06T20:20:48.383Z,17.59
2023-05-06T20:23:15.039Z,17.54
2023-05-06T20:25:41.667Z,17.52
2023-05-06T20:28:09.360Z,17.49
2023-05-06T20:30:36.052Z,17.47
2023-05-06T20:33:02.931Z,17.46
2023-05-06T20:35:29.780Z,17.43
2023-05-06T20:37:56.506Z,17.41
2023-05-06T20:40:23.136Z,17.41
2023-05-06T20:42:49.767Z,17.38
2023-05-06T20:45:34.962Z,17.39
2023-05-06T20:48:03.089Z,17.39
2023-05-06T20:50:32.223Z,17.36
2023-05-06T20:53:00.832Z,17.34
2023-05-06T20:55:27.682Z,17.33
2023-05-06T20:57:54.757Z,17.23
2023-05-06T21:00:21.646Z,17.16
2023-05-06T21:02:48.331Z,17.11
2023-05-06T21:05:15.415Z,17.06
2023-05-06T21:07:42.112Z,17.07
2023-05-06T21:10:09.836Z,17.03
2023-05-06T21:12:38.691Z,17.00
2023-05-06T21:15:06.255Z,16.96
2023-05-06T21:17:33.074Z,16.90
2023-05-06T21:19:59.723Z,16.84
2023-05-06T21:22:26.351Z,16.81
2023-05-06T21:24:53.030Z,16.78
2023-05-06T21:27:19.708Z,16.78
2023-05-06T21:29:46.634Z,16.77
2023-05-06T21:32:13.380Z,16.74
2023-05-06T21:34:40.029Z,16.75
2023-05-06T21:37:06.676Z,16.75
2023-05-06T21:39:35.105Z,16.79
2023-05-06T21:42:01.762Z,16.80
2023-05-06T21:44:28.378Z,16.76
2023-05-06T21:46:55.063Z,16.77
2023-05-06T21:49:22.360Z,16.75
2023-05-06T21:51:49.431Z,16.71
2023-05-06T21:54:17.215Z,16.71
2023-05-06T21:56:45.145Z,16.71
2023-05-06T21:59:14.444Z,16.69
2023-05-06T22:01:41.080Z,16.68
2023-05-06T22:04:12.733Z,16.66
2023-05-06T22:06:40.567Z,16.59
2023-05-06T22:09:09.487Z,16.59
2023-05-06T22:11:38.327Z,16.60
2023-05-06T22:14:06.478Z,16.60
2023-05-06T22:16:35.404Z,16.58
2023-05-06T22:19:04.055Z,16.60
2023-05-06T22:21:32.067Z,16.57
2023-05-06T22:23:58.832Z,16.56
2023-05-06T22:26:28.373Z,16.57
2023-05-06T22:28:57.864Z,16.56
2023-05-06T22:31:25.072Z,16.49
2023-05-06T22:33:55.572Z,16.44
2023-05-06T22:36:22.498Z,16.48
2023-05-06T22:38:50.875Z,16.45
2023-05-06T22:41:18.112Z,16.41
2023-05-06T22:43:46.100Z,16.43
2023-05-06T22:46:12.947Z,16.41
2023-05-06T22:48:40.542Z,16.37
2023-05-06T22:51:08.144Z,16.33
2023-05-06T22:53:34.893Z,16.31
2023-05-06T22:56:01.597Z,16.28
2023-05-06T22:58:30.736Z,16.24
2023-05-06T23:00:57.651Z,16.24
2023-05-06T23:03:24.419Z,16.26
2023-05-06T23:05:51.088Z,16.27
2023-05-06T23:08:17.679Z,16.28
2023-05-06T23:10:46.737Z,16.28
2023-05-06T23:13:13.400Z,16.27
2023-05-06T23:15:40.601Z,16.24
2023-05-06T23:18:07.322Z,16.22
2023-05-06T23:20:35.711Z,16.21
2023-05-06T23:23:02.334Z,16.15
2023-05-06T23:25:29.002Z,16.11
2023-05-06T23:27:56.327Z,16.07
2023-05-06T23:30:22.987Z,16.03
2023-05-06T23:32:49.789Z,16.04
2023-05-06T23:35:16.995Z,16.04
2023-05-06T23:37:43.596Z,16.03
2023-05-06T23:40:13.442Z,16.01
2023-05-06T23:42:40.569Z,16.01
2023-05-06T23:45:26.924Z,16.01
2023-05-06T23:47:54.264Z,16.00
2023-05-06T23:50:21.297Z,16.00
2023-05-06T23:52:47.910Z,16.00
2023-05-06T23:55:14.596Z,15.98
2023-05-06T23:57:41.226Z,15.97
